createdAt,value
2018-10-18T00:02:19.392Z,23.73
2018-10-18T00:04:47.571Z,22.30
2018-10-18T00:07:15.755Z,21.90
2018-10-18T00:09:43.934Z,22.53
2018-10-18T00:12:12.227Z,22.30
2018-10-18T00:14:40.847Z,23.27
2018-10-18T00:17:14.430Z,22.43
2018-10-18T00:19:42.603Z,22.00
2018-10-18T00:22:10.786Z,22.47
2018-10-18T00:24:38.963Z,22.17
2018-10-18T00:27:07.146Z,25.07
2018-10-18T00:29:35.315Z,22.10
2018-10-18T00:32:03.597Z,26.37
2018-10-18T00:34:31.714Z,22.60
2018-10-18T00:36:59.917Z,24.40
2018-10-18T00:39:28.090Z,20.33
2018-10-18T00:41:56.314Z,24.30
2018-10-18T00:44:24.450Z,19.60
2018-10-18T00:46:52.623Z,21.40
2018-10-18T00:49:20.802Z,19.70
2018-10-18T00:51:48.975Z,21.20
2018-10-18T00:54:17.325Z,23.57
2018-10-18T00:56:45.334Z,19.87
2018-10-18T00:59:13.514Z,21.10
2018-10-18T01:01:41.678Z,19.77
2018-10-18T01:04:09.866Z,21.47
2018-10-18T01:06:38.043Z,22.73
2018-10-18T01:09:07.703Z,22.00
2018-10-18T01:11:35.898Z,19.47
2018-10-18T01:14:04.119Z,20.27
2018-10-18T01:16:32.257Z,19.63
2018-10-18T01:19:00.614Z,20.00
2018-10-18T01:21:28.783Z,20.10
2018-10-18T01:23:56.996Z,19.43
2018-10-18T01:26:25.139Z,17.70
2018-10-18T01:28:53.323Z,20.10
2018-10-18T01:31:21.495Z,19.70
2018-10-18T01:33:49.675Z,23.30
2018-10-18T01:36:17.887Z,18.13
2018-10-18T01:38:46.023Z,19.03
2018-10-18T01:41:14.197Z,18.47
2018-10-18T01:43:42.374Z,19.07
2018-10-18T01:46:10.562Z,19.80
2018-10-18T01:48:38.735Z,19.57
2018-10-18T01:51:06.914Z,20.03
2018-10-18T01:53:35.090Z,18.97
2018-10-18T01:56:03.305Z,20.60
2018-10-18T01:58:31.447Z,20.07
2018-10-18T02:00:59.630Z,19.73
2018-10-18T02:03:27.806Z,22.63
2018-10-18T02:05:56.011Z,19.90
2018-10-18T02:08:24.156Z,24.67
2018-10-18T02:10:52.331Z,21.30
2018-10-18T02:13:20.487Z,21.20
2018-10-18T02:15:48.654Z,21.23
2018-10-18T02:18:16.845Z,20.13
2018-10-18T02:20:44.978Z,20.00
2018-10-18T02:23:13.134Z,19.40
2018-10-18T02:25:41.310Z,19.40
2018-10-18T02:28:09.466Z,21.07
2018-10-18T02:30:37.643Z,19.93
2018-10-18T02:33:05.800Z,22.07
2018-10-18T02:35:33.962Z,18.67
2018-10-18T02:38:02.126Z,18.20
2018-10-18T02:40:30.290Z,18.00
2018-10-18T02:42:58.445Z,20.17
2018-10-18T02:45:26.610Z,19.20
2018-10-18T02:47:54.818Z,20.03
2018-10-18T02:50:22.976Z,20.37
2018-10-18T02:52:51.135Z,21.27
2018-10-18T02:55:19.451Z,20.70
2018-10-18T02:57:47.838Z,19.10
2018-10-18T03:00:16.085Z,18.20
2018-10-18T03:02:44.288Z,18.20
2018-10-18T03:05:12.439Z,18.73
2018-10-18T03:07:40.604Z,17.77
2018-10-18T03:10:09.207Z,18.53
2018-10-18T03:12:37.426Z,18.77
2018-10-18T03:15:06.686Z,19.27
2018-10-18T03:17:34.863Z,21.83
2018-10-18T03:20:03.063Z,19.87
2018-10-18T03:22:31.307Z,20.47
2018-10-18T03:24:59.497Z,18.90
2018-10-18T03:27:27.661Z,20.03
2018-10-18T03:29:55.888Z,21.13
2018-10-18T03:32:24.323Z,19.77
2018-10-18T03:34:52.831Z,18.50
2018-10-18T03:37:21.010Z,19.73
2018-10-18T03:39:49.179Z,20.60
2018-10-18T03:42:17.454Z,20.33
2018-10-18T03:44:45.539Z,18.97
2018-10-18T03:47:13.718Z,20.47
2018-10-18T03:49:41.892Z,22.80
2018-10-18T03:52:10.074Z,20.13
2018-10-18T03:54:38.257Z,18.97
2018-10-18T03:57:06.434Z,20.00
2018-10-18T03:59:34.667Z,19.40
2018-10-18T04:02:02.794Z,19.23
2018-10-18T04:04:30.978Z,20.00
2018-10-18T04:06:59.142Z,23.03
2018-10-18T04:09:27.318Z,20.50
2018-10-18T04:11:55.490Z,24.90
2018-10-18T04:14:23.647Z,20.67
2018-10-18T04:16:51.802Z,19.43
2018-10-18T04:19:19.974Z,20.00
2018-10-18T04:21:48.134Z,18.70
2018-10-18T04:24:16.356Z,21.37
2018-10-18T04:26:44.458Z,20.50
2018-10-18T04:29:12.631Z,19.93
2018-10-18T04:31:40.791Z,20.50
2018-10-18T04:34:08.958Z,22.57
2018-10-18T04:36:37.115Z,23.33
2018-10-18T04:39:07.843Z,22.13
2018-10-18T04:41:36.011Z,22.33
2018-10-18T04:44:04.210Z,21.97
2018-10-18T04:46:32.362Z,22.90
2018-10-18T04:49:00.553Z,25.40
2018-10-18T04:51:28.682Z,22.20
2018-10-18T04:53:56.850Z,26.67
2018-10-18T04:56:25.019Z,24.10
2018-10-18T04:58:53.192Z,25.73
2018-10-18T05:01:21.451Z,25.63
2018-10-18T05:03:49.573Z,26.93
2018-10-18T05:06:17.761Z,25.57
2018-10-18T05:08:45.959Z,25.93
2018-10-18T05:11:14.216Z,28.37
2018-10-18T05:13:42.322Z,35.97
2018-10-18T05:16:10.489Z,26.57
2018-10-18T05:18:38.642Z,26.70
2018-10-18T05:21:06.811Z,27.00
2018-10-18T05:23:34.963Z,29.33
2018-10-18T05:26:03.138Z,29.13
2018-10-18T05:28:31.298Z,28.47
2018-10-18T05:30:59.532Z,26.87
2018-10-18T05:33:27.643Z,28.17
2018-10-18T05:35:55.802Z,29.93
2018-10-18T05:38:23.975Z,31.10
2018-10-18T05:40:52.134Z,32.97
2018-10-18T05:43:22.888Z,33.87
2018-10-18T05:45:51.955Z,25.10
2018-10-18T05:48:20.258Z,26.03
2018-10-18T05:50:48.473Z,26.23
2018-10-18T05:53:16.725Z,28.10
2018-10-18T05:55:44.846Z,36.13
2018-10-18T05:58:13.003Z,35.87
2018-10-18T06:00:41.163Z,27.40
2018-10-18T06:03:09.327Z,32.30
2018-10-18T06:05:37.490Z,30.03
2018-10-18T06:08:05.803Z,31.13
2018-10-18T06:10:45.590Z,35.77
2018-10-18T06:13:13.806Z,30.87
2018-10-18T06:15:41.937Z,30.63
2018-10-18T06:18:10.102Z,35.13
2018-10-18T06:20:38.267Z,35.30
2018-10-18T06:23:06.711Z,30.83
2018-10-18T06:25:34.916Z,35.83
2018-10-18T06:28:03.126Z,37.87
2018-10-18T06:30:31.303Z,42.87
2018-10-18T06:32:59.506Z,35.20
2018-10-18T06:35:27.851Z,38.47
2018-10-18T06:37:56.025Z,39.27
2018-10-18T06:40:24.178Z,41.80
2018-10-18T06:42:52.385Z,36.97
2018-10-18T06:45:20.540Z,34.63
2018-10-18T06:47:48.921Z,34.80
2018-10-18T06:50:19.227Z,34.47
2018-10-18T06:52:47.388Z,30.57
2018-10-18T06:55:15.588Z,28.20
2018-10-18T06:57:44.271Z,35.50
2018-10-18T07:00:14.614Z,33.37
2018-10-18T07:02:43.258Z,35.17
2018-10-18T07:05:12.688Z,29.90
2018-10-18T07:07:41.047Z,33.93
2018-10-18T07:10:09.249Z,29.70
2018-10-18T07:12:38.321Z,39.90
2018-10-18T07:15:07.325Z,32.67
2018-10-18T07:17:36.219Z,34.13
2018-10-18T07:20:04.623Z,30.33
2018-10-18T07:22:32.802Z,37.83
2018-10-18T07:25:01.000Z,36.10
2018-10-18T07:27:29.170Z,35.03
2018-10-18T07:29:57.396Z,33.27
2018-10-18T07:32:26.046Z,34.73
2018-10-18T07:34:54.652Z,33.23
2018-10-18T07:37:23.007Z,32.57
2018-10-18T07:39:51.194Z,30.27
2018-10-18T07:42:19.524Z,41.27
2018-10-18T07:44:47.557Z,33.93
2018-10-18T07:47:15.910Z,39.93
2018-10-18T07:49:44.140Z,35.33
2018-10-18T07:52:12.363Z,41.63
2018-10-18T07:54:40.566Z,41.40
2018-10-18T07:57:08.734Z,40.50
2018-10-18T07:59:36.921Z,46.47
2018-10-18T08:02:05.105Z,44.87
2018-10-18T08:04:33.310Z,46.83
2018-10-18T08:07:01.505Z,47.27
2018-10-18T08:09:29.690Z,45.10
2018-10-18T08:11:57.859Z,40.53
2018-10-18T08:14:26.031Z,43.43
2018-10-18T08:16:54.302Z,51.20
2018-10-18T08:19:22.359Z,54.47
2018-10-18T08:21:50.531Z,65.87
2018-10-18T08:24:18.695Z,64.90
2018-10-18T08:26:46.868Z,66.70
2018-10-18T08:29:15.355Z,58.80
2018-10-18T08:31:43.526Z,52.23
2018-10-18T08:34:11.723Z,63.20
2018-10-18T08:36:39.927Z,73.37
2018-10-18T08:39:09.263Z,67.37
2018-10-18T08:41:37.442Z,79.53
2018-10-18T08:44:05.725Z,64.90
2018-10-18T08:46:33.779Z,66.77
2018-10-18T08:49:02.047Z,73.93
2018-10-18T08:51:30.394Z,66.93
2018-10-18T08:53:58.591Z,72.70
2018-10-18T08:56:26.771Z,73.17
2018-10-18T08:58:55.278Z,66.67
2018-10-18T09:01:23.446Z,59.43
2018-10-18T09:03:51.611Z,72.23
2018-10-18T09:06:19.787Z,61.97
2018-10-18T09:08:47.942Z,70.27
2018-10-18T09:11:16.138Z,67.67
2018-10-18T09:13:44.360Z,82.20
2018-10-18T09:16:12.783Z,62.50
2018-10-18T09:18:40.775Z,67.73
2018-10-18T09:21:08.995Z,55.53
2018-10-18T09:23:37.559Z,59.97
2018-10-18T09:26:05.742Z,56.03
2018-10-18T09:28:33.914Z,73.67
2018-10-18T09:31:02.179Z,58.97
2018-10-18T09:33:30.267Z,65.23
2018-10-18T09:35:58.499Z,59.00
2018-10-18T09:38:26.784Z,67.80
2018-10-18T09:40:54.855Z,65.13
2018-10-18T09:43:23.084Z,56.03
2018-10-18T09:45:51.258Z,52.50
2018-10-18T09:48:19.443Z,54.30
2018-10-18T09:50:47.627Z,61.07
2018-10-18T09:53:15.848Z,57.00
2018-10-18T09:55:44.096Z,56.70
2018-10-18T09:58:12.276Z,62.67
2018-10-18T10:00:45.863Z,57.57
2018-10-18T10:03:16.782Z,51.37
2018-10-18T10:05:44.960Z,54.40
2018-10-18T10:08:13.439Z,51.87
2018-10-18T10:10:41.629Z,52.93
2018-10-18T10:13:09.931Z,49.47
2018-10-18T10:15:37.998Z,52.73
2018-10-18T10:18:06.281Z,51.50
2018-10-18T10:20:34.358Z,53.13
2018-10-18T10:23:02.722Z,48.83
2018-10-18T10:25:30.927Z,48.77
2018-10-18T10:27:59.107Z,57.30
2018-10-18T10:30:27.558Z,60.23
2018-10-18T10:32:55.824Z,52.67
2018-10-18T10:35:23.983Z,48.27
2018-10-18T10:37:52.183Z,52.40
2018-10-18T10:40:20.468Z,50.37
2018-10-18T10:42:48.616Z,45.47
2018-10-18T10:45:16.827Z,50.07
2018-10-18T10:47:44.914Z,50.10
2018-10-18T10:50:13.220Z,56.40
2018-10-18T10:52:41.277Z,53.33
2018-10-18T10:55:10.560Z,46.57
2018-10-18T10:57:38.735Z,47.00
2018-10-18T11:00:07.200Z,54.63
2018-10-18T11:02:35.315Z,47.43
2018-10-18T11:05:03.519Z,46.93
2018-10-18T11:07:31.699Z,53.27
2018-10-18T11:09:59.933Z,49.07
2018-10-18T11:12:28.291Z,53.43
2018-10-18T11:14:56.378Z,47.93
2018-10-18T11:17:24.535Z,46.57
2018-10-18T11:19:52.729Z,42.97
2018-10-18T11:22:20.894Z,37.77
2018-10-18T11:24:49.149Z,39.73
2018-10-18T11:27:17.303Z,40.70
2018-10-18T11:29:45.438Z,39.83
2018-10-18T11:32:13.679Z,44.50
2018-10-18T11:34:42.072Z,39.57
2018-10-18T11:37:10.250Z,44.00
2018-10-18T11:39:38.438Z,41.20
2018-10-18T11:42:06.666Z,43.30
2018-10-18T11:44:39.063Z,42.20
2018-10-18T11:47:07.291Z,42.90
2018-10-18T11:49:35.502Z,39.17
2018-10-18T11:52:03.750Z,38.50
2018-10-18T11:54:31.915Z,35.07
2018-10-18T11:57:00.120Z,36.07
2018-10-18T11:59:28.374Z,31.43
2018-10-18T12:01:56.585Z,35.67
2018-10-18T12:04:24.746Z,31.07
2018-10-18T12:06:52.935Z,37.37
2018-10-18T12:09:21.118Z,29.93
2018-10-18T12:11:49.307Z,32.67
2018-10-18T12:14:17.517Z,29.97
2018-10-18T12:16:45.639Z,30.40
2018-10-18T12:19:13.884Z,32.40
2018-10-18T12:21:41.983Z,33.47
2018-10-18T12:24:10.155Z,28.30
2018-10-18T12:26:38.344Z,28.60
2018-10-18T12:29:06.611Z,30.60
2018-10-18T12:31:34.699Z,34.33
2018-10-18T12:34:02.904Z,31.53
2018-10-18T12:36:31.127Z,30.73
2018-10-18T12:38:59.317Z,28.80
2018-10-18T12:41:27.618Z,22.57
2018-10-18T12:43:55.664Z,25.47
2018-10-18T12:46:23.831Z,25.23
2018-10-18T12:48:51.995Z,26.77
2018-10-18T12:51:20.163Z,26.53
2018-10-18T12:53:48.323Z,27.97
2018-10-18T12:56:16.600Z,26.30
2018-10-18T12:58:44.818Z,25.87
2018-10-18T13:01:12.995Z,24.17
2018-10-18T13:03:41.154Z,23.87
2018-10-18T13:06:09.355Z,21.17
2018-10-18T13:08:37.510Z,23.93
2018-10-18T13:11:05.842Z,22.53
2018-10-18T13:13:34.180Z,19.73
2018-10-18T13:16:02.465Z,21.87
2018-10-18T13:18:30.648Z,78.23
2018-10-18T13:20:58.825Z,64.53
2018-10-18T13:23:26.995Z,29.97
2018-10-18T13:25:55.226Z,22.13
2018-10-18T13:28:23.335Z,24.13
2018-10-18T13:30:51.494Z,21.97
2018-10-18T13:33:19.666Z,20.57
2018-10-18T13:35:48.102Z,22.50
2018-10-18T13:38:16.325Z,23.80
2018-10-18T13:40:44.993Z,21.80
2018-10-18T13:43:13.162Z,21.57
2018-10-18T13:45:41.315Z,21.10
2018-10-18T13:48:09.546Z,22.47
2018-10-18T13:50:37.655Z,21.73
2018-10-18T13:53:06.142Z,24.37
2018-10-18T13:55:34.363Z,24.73
2018-10-18T13:58:02.539Z,22.83
2018-10-18T14:00:31.401Z,23.40
2018-10-18T14:02:59.618Z,23.77
2018-10-18T14:05:28.168Z,23.77
2018-10-18T14:07:56.927Z,23.13
2018-10-18T14:10:25.059Z,22.00
2018-10-18T14:12:53.820Z,24.00
2018-10-18T14:15:22.019Z,20.83
2018-10-18T14:17:50.343Z,23.37
2018-10-18T14:20:18.528Z,23.83
2018-10-18T14:22:46.650Z,22.43
2018-10-18T14:25:14.827Z,21.67
2018-10-18T14:27:43.035Z,22.83
2018-10-18T14:30:12.509Z,25.17
2018-10-18T14:32:40.662Z,23.57
2018-10-18T14:35:10.428Z,21.17
2018-10-18T14:37:38.618Z,22.13
2018-10-18T14:40:07.786Z,21.13
2018-10-18T14:42:36.175Z,21.97
2018-10-18T14:45:05.654Z,22.23
2018-10-18T14:47:33.834Z,22.07
2018-10-18T14:50:02.111Z,20.50
2018-10-18T14:52:30.247Z,21.93
2018-10-18T14:54:58.438Z,22.93
2018-10-18T14:57:26.681Z,20.27
2018-10-18T14:59:54.806Z,19.00
2018-10-18T15:02:22.984Z,21.77
2018-10-18T15:04:51.171Z,21.53
2018-10-18T15:07:19.530Z,21.57
2018-10-18T15:09:47.759Z,19.27
2018-10-18T15:12:15.943Z,22.70
2018-10-18T15:14:44.127Z,20.73
2018-10-18T15:17:12.467Z,21.13
2018-10-18T15:19:40.503Z,19.60
2018-10-18T15:22:08.975Z,22.23
2018-10-18T15:24:37.167Z,19.87
2018-10-18T15:27:05.836Z,19.20
2018-10-18T15:29:33.849Z,18.73
2018-10-18T15:32:02.201Z,20.40
2018-10-18T15:34:30.287Z,18.63
2018-10-18T15:36:58.595Z,19.50
2018-10-18T15:39:26.852Z,19.60
2018-10-18T15:41:54.966Z,19.77
2018-10-18T15:44:23.249Z,23.03
2018-10-18T15:46:51.331Z,20.27
2018-10-18T15:49:19.522Z,19.57
2018-10-18T15:51:47.727Z,21.90
2018-10-18T15:54:16.029Z,29.73
2018-10-18T15:56:44.098Z,22.47
2018-10-18T15:59:12.383Z,21.60
2018-10-18T16:01:40.499Z,21.73
2018-10-18T16:04:08.674Z,23.37
2018-10-18T16:06:36.871Z,22.40
2018-10-18T16:09:08.589Z,23.27
2018-10-18T16:11:36.908Z,28.33
2018-10-18T16:14:05.100Z,23.47
2018-10-18T16:16:33.319Z,30.30
2018-10-18T16:19:01.499Z,23.57
2018-10-18T16:21:29.691Z,22.77
2018-10-18T16:23:57.929Z,25.23
2018-10-18T16:26:26.286Z,22.37
2018-10-18T16:28:54.375Z,23.87
2018-10-18T16:31:22.590Z,24.77
2018-10-18T16:33:50.837Z,25.47
2018-10-18T16:36:18.950Z,26.97
2018-10-18T16:38:47.135Z,26.53
2018-10-18T16:41:15.547Z,26.80
2018-10-18T16:43:43.531Z,28.73
2018-10-18T16:46:11.810Z,23.70
2018-10-18T16:48:39.967Z,24.97
2018-10-18T16:51:08.162Z,26.07
2018-10-18T16:53:36.381Z,25.00
2018-10-18T16:56:05.017Z,33.00
2018-10-18T16:58:33.194Z,22.83
2018-10-18T17:01:01.388Z,29.53
2018-10-18T17:03:29.570Z,23.43
2018-10-18T17:05:57.836Z,23.50
2018-10-18T17:08:25.971Z,29.13
2018-10-18T17:10:54.559Z,31.03
2018-10-18T17:13:22.731Z,23.10
2018-10-18T17:15:50.890Z,31.30
2018-10-18T17:18:19.092Z,38.50
2018-10-18T17:20:47.333Z,26.30
2018-10-18T17:23:15.645Z,25.57
2018-10-18T17:25:43.791Z,30.07
2018-10-18T17:28:11.963Z,35.17
2018-10-18T17:30:40.147Z,27.80
2018-10-18T17:33:08.355Z,38.27
2018-10-18T17:35:36.531Z,31.37
2018-10-18T17:38:05.027Z,34.27
2018-10-18T17:40:33.143Z,31.23
2018-10-18T17:43:01.594Z,33.00
2018-10-18T17:45:29.759Z,44.23
2018-10-18T17:47:57.967Z,31.10
2018-10-18T17:50:26.102Z,38.90
2018-10-18T17:52:54.422Z,37.83
2018-10-18T17:55:22.443Z,39.87
2018-10-18T17:57:50.614Z,38.30
2018-10-18T18:00:18.853Z,41.17
2018-10-18T18:02:46.946Z,36.50
2018-10-18T18:05:15.109Z,33.73
2018-10-18T18:07:43.301Z,40.43
2018-10-18T18:10:13.490Z,32.10
2018-10-18T18:12:41.698Z,40.93
2018-10-18T18:15:10.400Z,32.13
2018-10-18T18:17:38.811Z,39.60
2018-10-18T18:20:08.052Z,35.63
2018-10-18T18:22:36.232Z,48.17
2018-10-18T18:25:05.622Z,36.90
2018-10-18T18:27:33.804Z,48.60
2018-10-18T18:30:01.989Z,38.50
2018-10-18T18:32:30.166Z,43.77
2018-10-18T18:34:58.363Z,31.37
2018-10-18T18:37:26.551Z,41.83
2018-10-18T18:39:54.743Z,31.33
2018-10-18T18:42:22.923Z,38.00
2018-10-18T18:44:55.389Z,33.40
2018-10-18T18:47:23.612Z,38.27
2018-10-18T18:49:51.735Z,43.30
2018-10-18T18:52:19.964Z,34.57
2018-10-18T18:54:48.189Z,40.87
2018-10-18T18:57:16.423Z,48.33
2018-10-18T18:59:44.610Z,34.43
2018-10-18T19:02:12.806Z,42.57
2018-10-18T19:04:40.999Z,37.80
2018-10-18T19:07:09.174Z,42.47
2018-10-18T19:09:37.370Z,36.87
2018-10-18T19:12:05.691Z,46.77
2018-10-18T19:14:33.883Z,41.37
2018-10-18T19:17:02.068Z,40.87
2018-10-18T19:19:30.267Z,41.37
2018-10-18T19:21:58.714Z,45.23
2018-10-18T19:24:26.903Z,33.23
2018-10-18T19:26:55.106Z,43.23
2018-10-18T19:29:23.287Z,36.57
2018-10-18T19:31:51.510Z,33.20
2018-10-18T19:34:19.946Z,40.20
2018-10-18T19:36:48.173Z,45.07
2018-10-18T19:39:16.397Z,41.57
2018-10-18T19:41:44.604Z,34.60
2018-10-18T19:44:12.882Z,33.07
2018-10-18T19:46:41.199Z,41.07
2018-10-18T19:49:09.547Z,34.13
2018-10-18T19:51:37.811Z,42.73
2018-10-18T19:54:06.008Z,35.07
2018-10-18T19:56:34.219Z,39.40
2018-10-18T19:59:02.416Z,33.70
2018-10-18T20:01:30.592Z,43.70
2018-10-18T20:03:59.309Z,44.13
2018-10-18T20:06:27.588Z,37.23
2018-10-18T20:08:55.879Z,49.07
2018-10-18T20:11:24.059Z,39.43
2018-10-18T20:13:52.299Z,49.77
2018-10-18T20:16:20.897Z,38.67
2018-10-18T20:18:49.106Z,39.57
2018-10-18T20:21:17.418Z,36.57
2018-10-18T20:23:45.727Z,35.33
2018-10-18T20:26:14.257Z,43.80
2018-10-18T20:28:42.070Z,41.43
2018-10-18T20:31:10.311Z,41.47
2018-10-18T20:33:38.646Z,50.57
2018-10-18T20:36:07.116Z,36.20
2018-10-18T20:38:35.355Z,46.73
2018-10-18T20:41:03.622Z,37.23
2018-10-18T20:43:31.799Z,41.53
2018-10-18T20:46:00.114Z,35.90
2018-10-18T20:48:28.475Z,34.73
2018-10-18T20:50:56.819Z,37.93
2018-10-18T20:53:25.260Z,37.67
2018-10-18T20:55:53.565Z,37.90
2018-10-18T20:58:21.819Z,36.87
2018-10-18T21:00:49.959Z,39.40
2018-10-18T21:03:18.202Z,35.23
2018-10-18T21:05:46.515Z,37.77
2018-10-18T21:08:14.875Z,38.60
2018-10-18T21:10:43.138Z,36.23
2018-10-18T21:13:11.363Z,36.87
2018-10-18T21:15:39.467Z,47.00
2018-10-18T21:18:07.711Z,36.57
2018-10-18T21:20:35.846Z,37.00
2018-10-18T21:23:04.445Z,34.47
2018-10-18T21:25:32.602Z,35.90
2018-10-18T21:28:01.678Z,34.47
2018-10-18T21:30:29.866Z,36.40
2018-10-18T21:32:58.188Z,35.47
2018-10-18T21:35:26.355Z,34.70
2018-10-18T21:37:54.622Z,35.93
2018-10-18T21:40:23.459Z,34.77
2018-10-18T21:42:51.627Z,39.53
2018-10-18T21:45:19.999Z,33.80
2018-10-18T21:47:48.250Z,35.13
2018-10-18T21:50:16.423Z,34.33
2018-10-18T21:52:44.686Z,37.53
2018-10-18T21:55:12.855Z,34.60
2018-10-18T21:57:41.023Z,39.27
2018-10-18T22:00:13.667Z,36.67
2018-10-18T22:02:42.477Z,37.43
2018-10-18T22:05:10.889Z,35.23
2018-10-18T22:07:38.995Z,38.97
2018-10-18T22:10:07.170Z,34.67
2018-10-18T22:12:35.666Z,35.70
2018-10-18T22:15:04.247Z,35.20
2018-10-18T22:17:32.391Z,34.83
2018-10-18T22:20:00.610Z,35.03
2018-10-18T22:22:28.775Z,34.37
2018-10-18T22:24:56.975Z,34.27
2018-10-18T22:27:25.165Z,38.20
2018-10-18T22:29:53.417Z,34.83
2018-10-18T22:32:21.614Z,34.07
2018-10-18T22:34:49.787Z,32.67
2018-10-18T22:37:18.020Z,36.23
2018-10-18T22:39:46.111Z,34.60
2018-10-18T22:42:14.274Z,37.13
2018-10-18T22:44:42.447Z,35.80
2018-10-18T22:47:10.664Z,36.03
2018-10-18T22:49:38.780Z,33.87
2018-10-18T22:52:06.943Z,34.20
2018-10-18T22:54:35.119Z,37.67
2018-10-18T22:57:03.296Z,34.60
2018-10-18T22:59:31.455Z,34.80
2018-10-18T23:01:59.615Z,35.10
2018-10-18T23:04:27.783Z,35.53
2018-10-18T23:06:55.947Z,34.43
2018-10-18T23:09:24.135Z,33.37
2018-10-18T23:11:52.310Z,37.07
2018-10-18T23:14:20.540Z,32.93
2018-10-18T23:16:48.742Z,31.70
2018-10-18T23:19:16.916Z,32.30
2018-10-18T23:21:45.096Z,33.73
2018-10-18T23:24:13.254Z,32.90
2018-10-18T23:26:41.417Z,32.43
2018-10-18T23:29:09.615Z,31.70
2018-10-18T23:31:37.743Z,34.03
2018-10-18T23:34:06.101Z,32.47
2018-10-18T23:36:34.286Z,34.83
2018-10-18T23:39:02.557Z,34.53
2018-10-18T23:41:30.678Z,36.80
2018-10-18T23:43:59.026Z,31.67
2018-10-18T23:46:27.194Z,34.00
2018-10-18T23:48:55.350Z,32.03
2018-10-18T23:51:23.515Z,32.87
2018-10-18T23:53:51.675Z,33.50
2018-10-18T23:56:19.878Z,32.93
2018-10-18T23:58:48.067Z,35.60
